Time;durP1;ratioP1;P1;durP2;ratioP2;P2;SDS_P1;SDS_P2;PMS_P1;PMS_P2;Temp;Humidity;BMP_temperature;BMP_pressure;BME280_temperature;BME280_humidity;BME280_pressure;Samples;Min_cycle;Max_cycle;Signal;HPM_P1;HPM_P2
2022/06/24 00:00:05;;;;;;;7.95;4.57;;;22.60;99.90;;;;;;4980711;28;20527;-82
2022/06/24 00:02:31;;;;;;;6.13;4.82;;;22.50;99.90;;;;;;4980956;28;20030;-82
2022/06/24 00:04:59;;;;;;;7.95;5.15;;;22.50;99.90;;;;;;4980376;28;20610;-82
2022/06/24 00:07:25;;;;;;;8.30;4.30;;;22.50;99.90;;;;;;4980697;28;20077;-82
2022/06/24 00:09:50;;;;;;;9.38;3.83;;;22.50;99.90;;;;;;4980667;28;20684;-83
2022/06/24 00:12:23;;;;;;;6.38;4.78;;;22.50;99.90;;;;;;4978034;28;20175;-83
2022/06/24 00:15:01;;;;;;;6.47;4.60;;;22.40;99.90;;;;;;4979975;28;20097;-83
2022/06/24 00:17:29;;;;;;;7.32;4.43;;;22.40;99.90;;;;;;4979931;28;20034;-82
2022/06/24 00:20:00;;;;;;;5.07;4.05;;;22.40;99.90;;;;;;4980333;28;20084;-82
2022/06/24 00:22:28;;;;;;;10.70;4.97;;;22.40;99.90;;;;;;4980435;28;20050;-83
2022/06/24 00:25:11;;;;;;;5.80;4.80;;;22.40;99.90;;;;;;4995254;28;20085;-83
2022/06/24 00:27:38;;;;;;;7.18;4.55;;;22.30;99.90;;;;;;4979546;28;20050;-83
2022/06/24 00:30:16;;;;;;;9.60;6.78;;;22.30;99.90;;;;;;4980277;28;20073;-82
2022/06/24 00:32:43;;;;;;;7.13;5.03;;;22.30;99.90;;;;;;4979125;28;20141;-82
2022/06/24 00:35:18;;;;;;;7.43;4.30;;;22.20;99.90;;;;;;4979524;28;20042;-83
2022/06/24 00:37:45;;;;;;;4.55;4.22;;;22.20;99.90;;;;;;4979483;28;20065;-83
2022/06/24 00:40:14;;;;;;;7.00;6.25;;;22.20;99.90;;;;;;4980579;28;20041;-82
2022/06/24 00:42:44;;;;;;;10.13;5.15;;;22.10;99.90;;;;;;4979914;28;20386;-83
2022/06/24 00:45:45;;;;;;;7.03;5.35;;;22.10;99.90;;;;;;4980425;28;20049;-83
2022/06/24 00:48:14;;;;;;;5.75;4.97;;;22.10;99.90;;;;;;4979975;28;20038;-82
2022/06/24 00:50:44;;;;;;;8.98;5.80;;;22.00;99.90;;;;;;4980502;28;20286;-82
2022/06/24 00:53:10;;;;;;;6.85;5.50;;;22.00;99.90;;;;;;4980707;28;20134;-82
2022/06/24 00:55:37;;;;;;;9.50;5.80;;;22.00;99.90;;;;;;4980048;28;20047;-82
2022/06/24 00:58:05;;;;;;;7.65;6.15;;;22.00;99.90;;;;;;4979198;28;20039;-82
2022/06/24 01:00:32;;;;;;;10.15;6.88;;;21.90;99.90;;;;;;4979804;28;20129;-83
2022/06/24 01:03:03;;;;;;;9.85;6.88;;;21.90;99.90;;;;;;4980516;28;20038;-82
2022/06/24 01:05:30;;;;;;;8.65;6.75;;;21.90;99.90;;;;;;4984070;28;20117;-83
2022/06/24 01:07:56;;;;;;;7.40;5.22;;;21.90;99.90;;;;;;4983286;28;20573;-82
2022/06/24 01:10:22;;;;;;;10.15;7.05;;;21.90;99.90;;;;;;4984082;28;20038;-82
2022/06/24 01:12:48;;;;;;;9.00;6.88;;;21.80;99.90;;;;;;4982623;28;20408;-83
2022/06/24 01:15:14;;;;;;;13.18;7.22;;;21.80;99.90;;;;;;4983302;28;20183;-78
2022/06/24 01:17:40;;;;;;;10.85;6.78;;;21.70;99.90;;;;;;4984106;28;20042;-82
2022/06/24 01:20:09;;;;;;;12.70;6.53;;;21.70;99.90;;;;;;4983299;28;20042;-83
2022/06/24 01:22:35;;;;;;;7.00;5.90;;;21.70;99.90;;;;;;4983587;28;20114;-82
2022/06/24 01:25:01;;;;;;;8.45;6.82;;;21.70;99.90;;;;;;4983708;28;20050;-82
2022/06/24 01:27:26;;;;;;;7.35;6.43;;;21.60;99.90;;;;;;4982652;28;20157;-82
2022/06/24 01:29:52;;;;;;;7.80;6.88;;;21.60;99.90;;;;;;4982986;28;20052;-82
2022/06/24 01:32:18;;;;;;;7.95;6.40;;;21.60;99.90;;;;;;4983240;28;20417;-83
2022/06/24 01:34:44;;;;;;;13.55;7.60;;;21.60;99.90;;;;;;4982780;28;20302;-82
2022/06/24 01:37:09;;;;;;;10.48;7.47;;;21.60;99.90;;;;;;4983784;28;20038;-82
2022/06/24 01:39:35;;;;;;;7.82;6.13;;;21.50;99.90;;;;;;4983513;28;20532;-82
2022/06/24 01:42:00;;;;;;;10.75;6.72;;;21.50;99.90;;;;;;4981806;28;20547;-82
2022/06/24 01:44:26;;;;;;;7.53;6.25;;;21.50;99.90;;;;;;4981797;28;20112;-83
2022/06/24 01:46:52;;;;;;;12.32;7.88;;;21.40;99.90;;;;;;4982925;28;20038;-82
2022/06/24 01:49:18;;;;;;;7.25;5.95;;;21.40;99.90;;;;;;4982509;28;20046;-82
2022/06/24 01:51:47;;;;;;;7.38;6.63;;;21.40;99.90;;;;;;4981645;28;20057;-81
2022/06/24 01:54:12;;;;;;;11.95;6.55;;;21.40;99.90;;;;;;4983063;28;20042;-83
2022/06/24 01:56:38;;;;;;;7.00;5.38;;;21.40;99.90;;;;;;4982081;28;20046;-82
2022/06/24 01:59:04;;;;;;;6.35;5.78;;;21.40;99.90;;;;;;4981048;28;20100;-82
2022/06/24 02:01:30;;;;;;;8.30;6.15;;;21.30;99.90;;;;;;4982519;28;20046;-82
2022/06/24 02:03:55;;;;;;;7.57;6.40;;;21.30;99.90;;;;;;4982882;28;20492;-82
2022/06/24 02:06:21;;;;;;;7.05;6.07;;;21.40;99.90;;;;;;4983055;28;20145;-83
2022/06/24 02:08:47;;;;;;;8.32;5.70;;;21.40;99.90;;;;;;4982198;28;20445;-83
2022/06/24 02:13:59;;;;;;;8.38;6.38;;;21.40;99.90;;;;;;4981671;28;20042;-82
2022/06/24 02:16:26;;;;;;;8.75;6.63;;;21.30;99.90;;;;;;4982311;28;20064;-82
2022/06/24 02:18:54;;;;;;;7.22;5.15;;;21.30;99.90;;;;;;4982696;28;20049;-83
2022/06/24 02:21:21;;;;;;;7.80;5.13;;;21.30;99.90;;;;;;4980957;28;20057;-82
2022/06/24 02:23:46;;;;;;;7.25;4.97;;;21.30;99.90;;;;;;4980809;28;20055;-83
2022/06/24 02:26:12;;;;;;;9.95;6.05;;;21.20;99.90;;;;;;4981789;28;20046;-82
2022/06/24 02:28:38;;;;;;;7.50;6.05;;;21.20;99.90;;;;;;4981288;28;20038;-82
2022/06/24 02:31:04;;;;;;;5.97;5.10;;;21.20;99.90;;;;;;4981722;28;20352;-82
2022/06/24 02:33:30;;;;;;;6.20;5.20;;;21.20;99.90;;;;;;4980593;28;20043;-82
2022/06/24 02:35:56;;;;;;;9.70;5.43;;;21.20;99.90;;;;;;4982024;28;20042;-83
2022/06/24 02:38:22;;;;;;;8.02;6.18;;;21.10;99.90;;;;;;4982317;28;20034;-82
2022/06/24 02:40:48;;;;;;;8.02;6.18;;;21.10;99.90;;;;;;4980703;28;20142;-82
2022/06/24 02:43:27;;;;;;;9.98;5.63;;;21.10;99.90;;;;;;4982089;28;20050;-79
2022/06/24 02:45:54;;;;;;;6.75;5.32;;;21.10;99.90;;;;;;4981328;28;20478;-82
2022/06/24 02:48:21;;;;;;;7.13;5.55;;;21.10;99.90;;;;;;4982375;28;20429;-82
2022/06/24 02:50:55;;;;;;;8.82;6.57;;;21.00;99.90;;;;;;4981550;28;20412;-83
2022/06/24 02:53:21;;;;;;;8.80;6.35;;;21.00;99.90;;;;;;4980389;28;20129;-82
2022/06/24 02:55:49;;;;;;;6.20;5.70;;;21.00;99.90;;;;;;4980587;28;20165;-81
2022/06/24 02:58:15;;;;;;;8.82;6.30;;;20.90;99.90;;;;;;4982208;28;20042;-82
2022/06/24 03:00:43;;;;;;;7.70;6.13;;;20.90;99.90;;;;;;4997180;28;20125;-81
2022/06/24 03:03:14;;;;;;;10.60;6.28;;;20.90;99.90;;;;;;4982346;28;20052;-82
2022/06/24 03:05:40;;;;;;;6.75;6.10;;;20.80;99.90;;;;;;4980471;28;20045;-82
2022/06/24 03:08:07;;;;;;;13.10;5.95;;;20.80;99.90;;;;;;4980985;28;20041;-82
2022/06/24 03:10:33;;;;;;;8.88;6.60;;;20.90;99.90;;;;;;4980391;28;20105;-82
2022/06/24 03:12:59;;;;;;;7.38;6.07;;;20.90;99.90;;;;;;4981282;28;20046;-82
2022/06/24 03:15:24;;;;;;;12.48;7.05;;;20.80;99.90;;;;;;4981238;28;20058;-83
2022/06/24 03:17:50;;;;;;;8.98;6.78;;;20.80;99.90;;;;;;4980738;28;20089;-83
2022/06/24 03:20:16;;;;;;;9.63;7.97;;;20.80;99.90;;;;;;4981403;28;20113;-83
2022/06/24 03:22:41;;;;;;;9.93;7.35;;;20.80;99.90;;;;;;4980653;28;20120;-82
2022/06/24 03:25:08;;;;;;;6.95;6.25;;;20.80;99.90;;;;;;4980955;28;20038;-82
2022/06/24 03:27:34;;;;;;;8.77;6.65;;;20.80;99.90;;;;;;4980209;28;20238;-82
2022/06/24 03:30:00;;;;;;;12.43;5.70;;;20.80;99.90;;;;;;4980941;28;20038;-82
2022/06/24 03:32:26;;;;;;;7.35;5.75;;;20.80;99.90;;;;;;4980800;28;20093;-82
2022/06/24 03:34:52;;;;;;;9.68;7.47;;;20.80;99.90;;;;;;4981083;28;20695;-82
2022/06/24 03:37:18;;;;;;;13.30;7.63;;;20.80;99.90;;;;;;4980969;28;20043;-83
2022/06/24 03:39:44;;;;;;;12.45;7.13;;;20.80;99.90;;;;;;4980498;28;20047;-79
2022/06/24 03:42:09;;;;;;;10.45;7.25;;;20.80;99.90;;;;;;4980580;28;20231;-82
2022/06/24 03:44:35;;;;;;;18.08;7.63;;;20.80;99.90;;;;;;4979796;28;20053;-82
2022/06/24 03:47:03;;;;;;;11.13;7.15;;;20.80;99.90;;;;;;4979049;28;20125;-82
2022/06/24 03:49:29;;;;;;;7.38;6.68;;;20.80;99.90;;;;;;4980853;28;20069;-82
2022/06/24 03:51:54;;;;;;;8.68;6.97;;;20.70;99.90;;;;;;4979879;28;20042;-82
2022/06/24 03:54:20;;;;;;;11.07;7.60;;;20.80;99.90;;;;;;4980642;28;20382;-83
2022/06/24 03:56:46;;;;;;;10.40;7.38;;;20.70;99.90;;;;;;4979524;28;20042;-83
2022/06/24 03:59:11;;;;;;;9.25;7.35;;;20.80;99.90;;;;;;4979784;28;20485;-82
2022/06/24 04:01:37;;;;;;;11.35;6.30;;;20.80;99.90;;;;;;4981701;28;20073;-82
2022/06/24 04:04:03;;;;;;;13.23;9.15;;;20.70;99.90;;;;;;4981402;28;20038;-82
2022/06/24 04:06:28;;;;;;;11.35;8.50;;;20.80;99.90;;;;;;4981459;28;20042;-81
2022/06/24 04:08:55;;;;;;;11.48;8.60;;;20.80;99.90;;;;;;4979711;28;20050;-83
2022/06/24 04:11:21;;;;;;;9.68;7.00;;;20.80;99.90;;;;;;4980754;28;20117;-83
2022/06/24 04:13:47;;;;;;;9.02;6.68;;;20.70;99.90;;;;;;4981181;28;20497;-80
2022/06/24 04:16:12;;;;;;;7.38;5.72;;;20.80;99.90;;;;;;4981430;28;20507;-81
2022/06/24 04:18:38;;;;;;;8.93;5.93;;;20.70;99.90;;;;;;4981650;28;20089;-80
2022/06/24 04:21:12;;;;;;;6.65;4.57;;;20.70;99.90;;;;;;4980976;28;20042;-79
2022/06/24 04:23:38;;;;;;;8.80;4.32;;;20.70;99.90;;;;;;4981623;28;20042;-80
2022/06/24 04:26:03;;;;;;;10.70;4.57;;;20.60;99.90;;;;;;4980202;28;20054;-80
2022/06/24 04:28:29;;;;;;;9.65;4.57;;;20.60;99.90;;;;;;4981316;28;20109;-80
2022/06/24 04:30:54;;;;;;;5.38;3.70;;;20.50;99.90;;;;;;4980962;28;20082;-81
2022/06/24 04:33:21;;;;;;;5.50;4.07;;;20.40;99.90;;;;;;4981005;28;20052;-80
2022/06/24 04:35:47;;;;;;;4.78;3.25;;;20.40;99.90;;;;;;4980962;28;20129;-80
2022/06/24 04:38:13;;;;;;;6.68;3.45;;;20.30;99.90;;;;;;4982945;28;20050;-81
2022/06/24 04:40:39;;;;;;;4.30;2.55;;;20.20;99.90;;;;;;4984493;28;20516;-80
2022/06/24 04:43:05;;;;;;;2.25;2.08;;;20.20;99.90;;;;;;4985006;28;20081;-81
2022/06/24 04:45:31;;;;;;;2.70;2.50;;;20.20;99.90;;;;;;4984580;28;20497;-80
2022/06/24 04:47:57;;;;;;;8.55;2.80;;;20.10;99.90;;;;;;4984888;28;20043;-81
2022/06/24 04:50:23;;;;;;;6.00;2.65;;;20.00;99.90;;;;;;4984079;28;20489;-81
2022/06/24 04:52:48;;;;;;;5.32;2.60;;;20.00;99.90;;;;;;4983418;28;20536;-81
2022/06/24 04:55:14;;;;;;;3.38;2.30;;;20.00;99.90;;;;;;4984394;28;20034;-81
2022/06/24 04:57:40;;;;;;;4.07;2.80;;;20.00;99.90;;;;;;4985506;28;20112;-81
2022/06/24 05:00:08;;;;;;;6.75;2.95;;;19.90;99.90;;;;;;4984555;28;20485;-81
2022/06/24 05:02:34;;;;;;;3.78;2.67;;;19.90;99.90;;;;;;4984072;28;20043;-82
2022/06/24 05:05:00;;;;;;;3.15;2.63;;;19.90;99.90;;;;;;4984050;28;20133;-82
2022/06/24 05:07:25;;;;;;;3.78;2.72;;;19.90;99.90;;;;;;4981241;28;20491;-82
2022/06/24 05:09:51;;;;;;;4.75;2.60;;;19.90;99.90;;;;;;4983375;28;20420;-81
2022/06/24 05:12:17;;;;;;;5.40;2.63;;;19.90;99.90;;;;;;4976337;28;20119;-81
2022/06/24 05:14:42;;;;;;;3.22;2.92;;;19.90;99.90;;;;;;4973055;28;20389;-82
2022/06/24 05:17:08;;;;;;;11.68;2.70;;;19.90;99.90;;;;;;4980758;28;20569;-82
2022/06/24 05:19:33;;;;;;;3.92;2.45;;;19.90;99.90;;;;;;4971598;28;20070;-82
2022/06/24 05:21:59;;;;;;;7.25;3.80;;;19.80;99.90;;;;;;4967047;28;20039;-80
2022/06/24 05:24:24;;;;;;;4.22;3.28;;;19.80;99.90;;;;;;4973075;28;20034;-81
2022/06/24 05:26:50;;;;;;;3.90;2.65;;;19.70;99.90;;;;;;4967381;28;20038;-80
2022/06/24 05:29:16;;;;;;;4.55;2.83;;;19.60;99.90;;;;;;4970828;28;20188;-81
2022/06/24 05:31:42;;;;;;;12.32;3.67;;;19.60;99.90;;;;;;4966312;28;20058;-81
2022/06/24 05:34:08;;;;;;;9.73;2.83;;;19.50;99.90;;;;;;4968932;28;20073;-79
2022/06/24 05:36:34;;;;;;;5.95;3.15;;;19.40;99.90;;;;;;4969508;28;20054;-78
2022/06/24 05:39:05;;;;;;;7.80;3.42;;;19.30;99.90;;;;;;4976667;28;20051;-78
2022/06/24 05:41:31;;;;;;;6.40;2.92;;;19.30;99.90;;;;;;4971650;28;20038;-77
2022/06/24 05:43:57;;;;;;;2.95;2.70;;;19.20;99.90;;;;;;4982369;28;20084;-77
2022/06/24 05:46:22;;;;;;;5.95;2.80;;;19.30;99.90;;;;;;4983611;28;20054;-78
2022/06/24 05:48:48;;;;;;;6.80;2.35;;;19.30;99.90;;;;;;4971964;28;20046;-79
2022/06/24 05:51:16;;;;;;;6.18;3.15;;;19.30;99.90;;;;;;4980378;28;20559;-77
2022/06/24 05:56:28;;;;;;;3.42;2.40;;;19.30;99.90;;;;;;4974497;28;20422;-77
2022/06/24 05:58:54;;;;;;;3.10;2.80;;;19.20;99.90;;;;;;4974231;28;20042;-76
2022/06/24 06:01:20;;;;;;;2.97;2.35;;;19.20;99.90;;;;;;4981921;28;20074;-77
2022/06/24 06:03:47;;;;;;;4.22;2.50;;;19.10;99.90;;;;;;4982911;28;20050;-77
2022/06/24 06:06:13;;;;;;;5.95;2.72;;;19.10;99.90;;;;;;4982839;28;20068;-77
2022/06/24 06:08:39;;;;;;;7.22;3.05;;;19.00;99.90;;;;;;4985161;28;20048;-76
2022/06/24 06:11:19;;;;;;;4.28;2.70;;;19.00;99.90;;;;;;4994388;28;20092;-76
2022/06/24 06:13:46;;;;;;;5.00;3.33;;;19.00;99.90;;;;;;4963671;28;20051;-74
2022/06/24 06:16:11;;;;;;;5.43;3.67;;;19.00;99.90;;;;;;4962815;28;20101;-76
2022/06/24 06:18:38;;;;;;;4.40;3.30;;;19.00;99.90;;;;;;4963222;28;20070;-76
2022/06/24 06:21:07;;;;;;;5.30;3.97;;;19.00;99.90;;;;;;4963042;28;20042;-75
2022/06/24 06:23:34;;;;;;;6.25;3.53;;;18.90;99.90;;;;;;4963866;28;20089;-77
2022/06/24 06:26:01;;;;;;;5.80;3.65;;;18.90;99.90;;;;;;4962835;28;20035;-75
2022/06/24 06:28:27;;;;;;;9.00;3.60;;;18.90;99.90;;;;;;4963938;28;20189;-76
2022/06/24 06:30:52;;;;;;;11.52;3.97;;;18.90;99.90;;;;;;4978030;28;20133;-77
2022/06/24 06:33:18;;;;;;;5.28;4.07;;;18.90;99.90;;;;;;4978428;28;20591;-79
2022/06/24 06:35:44;;;;;;;7.70;4.43;;;18.90;99.90;;;;;;4960790;28;20054;-79
2022/06/24 06:38:10;;;;;;;5.30;4.57;;;18.90;99.90;;;;;;4962231;28;20046;-78
2022/06/24 06:40:39;;;;;;;7.05;4.55;;;18.90;99.90;;;;;;4960934;28;20078;-79
2022/06/24 06:43:06;;;;;;;5.88;3.78;;;18.90;99.90;;;;;;4961907;28;20043;-79
2022/06/24 06:45:33;;;;;;;7.10;4.82;;;18.90;99.90;;;;;;4963583;28;20141;-76
2022/06/24 06:47:58;;;;;;;6.10;5.55;;;18.90;99.90;;;;;;4963162;28;20557;-77
2022/06/24 06:50:25;;;;;;;9.80;4.35;;;18.90;99.90;;;;;;4963279;28;20130;-77
2022/06/24 06:52:50;;;;;;;6.03;5.38;;;18.90;99.90;;;;;;4961895;28;20058;-77
2022/06/24 06:55:16;;;;;;;5.90;5.38;;;18.90;99.90;;;;;;4958915;28;20042;-77
2022/06/24 06:57:42;;;;;;;7.05;5.60;;;18.90;99.90;;;;;;4962251;28;20058;-77
2022/06/24 07:00:11;;;;;;;10.88;5.78;;;19.00;99.90;;;;;;4961436;28;20440;-77
2022/06/24 07:02:37;;;;;;;6.40;5.75;;;19.00;99.90;;;;;;4961066;28;20533;-77
2022/06/24 07:05:04;;;;;;;10.15;6.65;;;19.00;99.90;;;;;;4961541;28;20043;-77
2022/06/24 07:07:30;;;;;;;10.00;5.75;;;19.00;99.90;;;;;;4961041;28;20046;-76
2022/06/24 07:09:56;;;;;;;7.35;5.72;;;19.10;99.90;;;;;;4961230;28;20468;-77
2022/06/24 07:12:22;;;;;;;9.50;6.25;;;19.00;99.90;;;;;;4971051;28;20431;-77
2022/06/24 07:14:48;;;;;;;8.48;6.57;;;19.10;99.90;;;;;;4978846;28;20046;-77
2022/06/24 07:17:15;;;;;;;7.82;6.68;;;19.10;99.90;;;;;;4979538;28;20153;-77
2022/06/24 07:19:41;;;;;;;14.30;8.57;;;19.10;99.90;;;;;;4980945;28;20046;-77
2022/06/24 07:22:06;;;;;;;9.38;6.97;;;19.10;99.90;;;;;;4979602;28;20042;-77
2022/06/24 07:24:32;;;;;;;10.02;7.70;;;19.10;99.90;;;;;;4980644;28;20038;-77
2022/06/24 07:26:58;;;;;;;8.30;6.90;;;19.20;99.90;;;;;;4979798;28;20481;-77
2022/06/24 07:29:23;;;;;;;9.68;7.30;;;19.20;99.90;;;;;;4980915;28;20512;-77
2022/06/24 07:31:49;;;;;;;7.85;6.43;;;19.20;99.90;;;;;;4980352;28;20042;-77
2022/06/24 07:34:15;;;;;;;10.48;8.52;;;19.20;99.90;;;;;;4995498;28;20069;-77
2022/06/24 07:36:41;;;;;;;8.30;7.00;;;19.20;99.90;;;;;;4980637;28;20089;-77
2022/06/24 07:39:07;;;;;;;9.25;6.88;;;19.20;99.90;;;;;;4979973;28;20035;-77
2022/06/24 07:41:33;;;;;;;8.57;6.93;;;19.20;99.90;;;;;;4978900;28;20058;-76
2022/06/24 07:43:58;;;;;;;8.80;6.18;;;19.20;99.90;;;;;;4980619;28;20046;-77
2022/06/24 07:46:24;;;;;;;8.45;6.03;;;19.20;99.90;;;;;;4980567;28;20042;-77
2022/06/24 07:48:49;;;;;;;7.75;6.40;;;19.20;99.90;;;;;;4980421;28;20085;-77
2022/06/24 07:51:16;;;;;;;7.63;5.97;;;19.20;99.90;;;;;;4979232;28;20275;-77
2022/06/24 07:53:43;;;;;;;11.82;6.95;;;19.20;99.90;;;;;;4980869;28;20191;-77
2022/06/24 07:58:54;;;;;;;10.95;6.22;;;19.30;99.90;;;;;;4980463;28;20350;-77
2022/06/24 08:01:19;;;;;;;8.25;6.13;;;19.30;99.90;;;;;;4980233;28;20030;-77
2022/06/24 08:03:45;;;;;;;7.90;6.40;;;19.30;99.90;;;;;;4978731;28;20384;-77
2022/06/24 08:06:11;;;;;;;9.25;6.78;;;19.30;99.90;;;;;;4979637;28;20123;-77
2022/06/24 08:08:37;;;;;;;11.65;7.15;;;19.40;99.90;;;;;;4979689;28;20038;-77
2022/06/24 08:11:03;;;;;;;12.05;6.75;;;19.40;99.90;;;;;;4979219;28;20532;-77
2022/06/24 08:13:30;;;;;;;7.45;6.18;;;19.40;99.90;;;;;;4980066;28;20042;-77
2022/06/24 08:15:56;;;;;;;8.50;6.72;;;19.40;99.90;;;;;;4979394;28;20050;-77
2022/06/24 08:18:22;;;;;;;8.15;5.82;;;19.50;99.90;;;;;;4978819;28;20089;-77
2022/06/24 08:20:48;;;;;;;7.03;5.57;;;19.50;99.90;;;;;;4979259;28;20408;-77
2022/06/24 08:23:15;;;;;;;8.45;5.05;;;19.50;99.90;;;;;;4979939;28;20035;-78
2022/06/24 08:25:40;;;;;;;7.53;6.00;;;19.50;99.90;;;;;;4979485;28;20328;-77
2022/06/24 08:28:06;;;;;;;7.78;6.63;;;19.50;99.90;;;;;;4978096;28;20132;-77
2022/06/24 08:30:32;;;;;;;9.43;5.32;;;19.40;99.90;;;;;;4979737;28;20050;-77
2022/06/24 08:32:57;;;;;;;7.20;4.60;;;19.40;99.90;;;;;;4978389;28;20480;-78
2022/06/24 08:35:23;;;;;;;8.82;4.82;;;19.30;99.90;;;;;;4979431;28;20046;-79
2022/06/24 08:37:48;;;;;;;11.57;5.80;;;19.30;99.90;;;;;;4979826;28;20034;-79
2022/06/24 08:40:15;;;;;;;13.27;6.85;;;19.20;99.90;;;;;;4979001;28;20493;-80
2022/06/24 08:42:44;;;;;;;8.13;6.60;;;19.10;99.90;;;;;;4979019;28;20693;-80
2022/06/24 08:45:12;;;;;;;8.75;5.70;;;19.10;99.90;;;;;;4979050;28;20539;-80
2022/06/24 08:47:39;;;;;;;10.73;6.63;;;19.00;99.90;;;;;;4978214;28;20121;-80
2022/06/24 08:50:07;;;;;;;6.72;5.68;;;18.90;99.90;;;;;;4979539;28;20266;-81
2022/06/24 08:52:33;;;;;;;9.15;5.88;;;18.80;99.90;;;;;;4977728;28;20042;-81
2022/06/24 08:55:00;;;;;;;7.53;5.93;;;18.80;99.90;;;;;;4978935;28;20440;-81
2022/06/24 08:57:25;;;;;;;5.05;4.20;;;18.70;99.90;;;;;;4978684;28;20046;-80
2022/06/24 08:59:51;;;;;;;10.15;5.15;;;18.60;99.90;;;;;;4978193;28;20046;-80
2022/06/24 09:02:18;;;;;;;8.52;4.18;;;18.60;99.90;;;;;;4979608;28;20583;-79
2022/06/24 09:04:44;;;;;;;6.90;3.40;;;18.50;99.90;;;;;;4978206;28;20563;-79
2022/06/24 09:07:22;;;;;;;3.47;2.83;;;18.40;99.90;;;;;;4978569;28;20054;-79
2022/06/24 09:10:05;;;;;;;3.03;2.72;;;18.40;99.90;;;;;;4976976;28;20046;-79
2022/06/24 09:12:37;;;;;;;2.63;2.13;;;18.30;99.90;;;;;;4967750;28;20089;-79
2022/06/24 09:15:05;;;;;;;6.25;3.03;;;18.30;99.90;;;;;;4958143;28;20802;-78
2022/06/24 09:17:32;;;;;;;3.88;2.67;;;18.30;99.90;;;;;;4960623;28;20047;-78
2022/06/24 09:20:08;;;;;;;4.90;2.55;;;18.20;99.90;;;;;;4960029;28;20042;-79
2022/06/24 09:22:34;;;;;;;4.50;4.05;;;18.20;99.90;;;;;;4960084;28;20083;-79
2022/06/24 09:25:03;;;;;;;5.68;3.40;;;18.20;99.90;;;;;;4943533;28;20050;-79
2022/06/24 09:27:29;;;;;;;3.83;2.65;;;18.20;99.90;;;;;;4963337;28;20039;-79
2022/06/24 09:29:56;;;;;;;5.95;3.50;;;18.20;99.90;;;;;;4963241;28;20053;-79
2022/06/24 09:32:21;;;;;;;3.88;2.88;;;18.20;99.90;;;;;;4961934;28;20061;-79
2022/06/24 09:35:06;;;;;;;3.13;2.65;;;18.20;99.90;;;;;;4963329;28;20365;-79
2022/06/24 09:37:39;;;;;;;3.97;3.15;;;18.10;99.90;;;;;;4963217;28;20193;-79
2022/06/24 09:40:14;;;;;;;4.95;3.30;;;18.20;99.90;;;;;;4962064;28;20035;-79
2022/06/24 09:42:40;;;;;;;5.25;3.10;;;18.20;99.90;;;;;;4963663;28;20142;-79
2022/06/24 09:45:06;;;;;;;4.68;3.20;;;18.20;99.90;;;;;;4963204;28;20129;-79
2022/06/24 09:47:39;;;;;;;3.05;2.75;;;18.20;99.90;;;;;;4963313;28;20073;-79
2022/06/24 09:50:05;;;;;;;3.10;2.85;;;18.20;99.90;;;;;;4962975;28;20122;-79
2022/06/24 09:52:31;;;;;;;4.70;2.72;;;18.20;99.90;;;;;;4963084;28;20057;-79
2022/06/24 09:54:58;;;;;;;3.42;2.90;;;18.20;99.90;;;;;;4961717;28;20039;-79
2022/06/24 09:57:25;;;;;;;6.45;3.72;;;18.20;99.90;;;;;;4961820;28;20042;-79
2022/06/24 10:02:37;;;;;;;3.45;3.15;;;18.20;99.90;;;;;;4962895;28;20154;-79
2022/06/24 10:05:06;;;;;;;5.32;3.80;;;18.30;99.90;;;;;;4962461;28;20247;-79
2022/06/24 10:07:34;;;;;;;5.55;3.20;;;18.30;99.90;;;;;;4945321;28;20045;-79
2022/06/24 10:10:03;;;;;;;4.45;3.80;;;18.30;99.90;;;;;;4960050;28;20043;-79
2022/06/24 10:12:31;;;;;;;3.63;3.33;;;18.30;99.90;;;;;;4971643;28;20050;-79
2022/06/24 10:14:59;;;;;;;6.10;3.25;;;18.30;99.90;;;;;;4964565;28;20058;-79
2022/06/24 10:17:26;;;;;;;5.55;4.38;;;18.40;99.90;;;;;;4981765;28;20535;-79
2022/06/24 10:19:52;;;;;;;6.32;3.40;;;18.40;99.90;;;;;;4980518;28;20057;-79
2022/06/24 10:22:37;;;;;;;5.30;3.60;;;18.40;99.90;;;;;;4981800;28;20316;-79
2022/06/24 10:25:03;;;;;;;5.47;4.47;;;18.40;99.90;;;;;;4995682;28;20346;-79
2022/06/24 10:27:59;;;;;;;5.38;3.55;;;18.40;99.90;;;;;;4982012;28;20069;-78
2022/06/24 10:30:41;;;;;;;8.75;4.40;;;18.40;99.90;;;;;;4996557;28;20477;-79
2022/06/24 10:33:13;;;;;;;5.65;4.80;;;18.40;99.90;;;;;;4980587;28;20054;-79
2022/06/24 10:36:02;;;;;;;8.77;6.13;;;18.40;99.90;;;;;;4982018;28;20034;-78
2022/06/24 10:38:41;;;;;;;9.48;7.30;;;18.50;99.90;;;;;;4981527;28;20049;-79
2022/06/24 10:41:10;;;;;;;9.70;7.18;;;18.40;99.90;;;;;;4980776;28;20046;-78
2022/06/24 10:43:43;;;;;;;14.10;9.45;;;18.40;99.90;;;;;;4981842;28;20038;-78
2022/06/24 10:46:12;;;;;;;10.38;9.20;;;18.40;99.90;;;;;;4981120;28;20385;-78
2022/06/24 10:48:43;;;;;;;14.77;10.10;;;18.40;99.90;;;;;;4981337;28;20175;-78
2022/06/24 10:51:16;;;;;;;14.45;10.60;;;18.50;99.90;;;;;;4980399;28;20061;-78
2022/06/24 10:54:14;;;;;;;15.27;11.20;;;18.50;99.90;;;;;;4980723;28;20500;-78
2022/06/24 10:56:44;;;;;;;12.35;8.90;;;18.60;99.90;;;;;;4969386;28;20046;-78
2022/06/24 10:59:12;;;;;;;14.43;11.25;;;18.60;99.90;;;;;;4980181;28;20046;-78
2022/06/24 11:01:43;;;;;;;13.88;10.57;;;18.60;99.90;;;;;;4981523;28;20475;-78
2022/06/24 11:04:13;;;;;;;14.32;10.57;;;18.60;99.90;;;;;;4981310;28;20045;-78
2022/06/24 11:06:39;;;;;;;16.48;9.38;;;18.70;99.90;;;;;;4980428;28;20157;-78
2022/06/24 11:09:08;;;;;;;14.63;10.23;;;18.70;99.90;;;;;;4980773;28;20117;-78
2022/06/24 11:11:34;;;;;;;15.57;10.30;;;18.70;99.90;;;;;;4975875;28;20051;-78
2022/06/24 11:14:20;;;;;;;18.13;9.07;;;18.70;99.90;;;;;;4961450;28;20101;-78
2022/06/24 11:16:45;;;;;;;14.32;9.15;;;18.70;99.90;;;;;;4960976;28;20046;-78
2022/06/24 11:19:12;;;;;;;13.60;11.05;;;18.70;99.90;;;;;;4962211;28;20046;-78
2022/06/24 11:21:50;;;;;;;16.27;9.88;;;18.70;99.90;;;;;;4960117;28;20193;-78
2022/06/24 11:24:20;;;;;;;17.45;10.48;;;18.70;99.90;;;;;;4959359;28;20047;-78
2022/06/24 11:27:06;;;;;;;14.00;11.07;;;18.80;99.90;;;;;;4960955;28;20429;-78
2022/06/24 11:30:00;;;;;;;14.02;9.13;;;18.80;99.90;;;;;;4976324;28;20046;-78
2022/06/24 11:32:27;;;;;;;15.45;10.23;;;18.90;99.90;;;;;;4976096;28;20568;-78
2022/06/24 11:34:52;;;;;;;12.55;9.82;;;18.90;99.90;;;;;;4960916;28;20126;-78
2022/06/24 11:37:23;;;;;;;14.90;11.00;;;19.00;99.90;;;;;;4967149;28;20107;-79
2022/06/24 11:39:55;;;;;;;13.93;10.02;;;19.00;99.90;;;;;;4975094;28;20038;-78
2022/06/24 11:42:24;;;;;;;14.32;10.18;;;19.00;99.90;;;;;;4965009;28;20117;-78
2022/06/24 11:44:51;;;;;;;14.73;10.82;;;19.10;99.90;;;;;;4980479;28;20423;-78
2022/06/24 11:47:30;;;;;;;14.25;11.50;;;19.10;99.90;;;;;;4973884;28;20041;-79
2022/06/24 11:49:55;;;;;;;14.38;11.77;;;19.00;99.90;;;;;;4968036;28;20042;-79
2022/06/24 11:52:21;;;;;;;14.60;12.23;;;19.10;99.90;;;;;;4976343;28;20069;-78
2022/06/24 11:54:47;;;;;;;17.42;11.10;;;19.10;99.90;;;;;;4971652;28;20073;-79
2022/06/24 11:57:12;;;;;;;15.50;12.02;;;19.20;99.90;;;;;;4974587;28;20049;-78
2022/06/24 11:59:38;;;;;;;18.73;12.32;;;19.20;99.90;;;;;;4972159;28;20488;-79
2022/06/24 12:02:08;;;;;;;17.23;13.55;;;19.20;99.90;;;;;;4969778;28;20049;-79
2022/06/24 12:04:34;;;;;;;16.90;13.32;;;19.30;99.90;;;;;;4979139;28;20116;-79
2022/06/24 12:07:03;;;;;;;17.73;14.38;;;19.30;99.90;;;;;;4980330;28;20042;-78
2022/06/24 12:09:30;;;;;;;20.38;14.95;;;19.30;99.90;;;;;;4966881;28;20050;-78
2022/06/24 12:12:06;;;;;;;21.05;14.88;;;19.40;99.90;;;;;;4979741;28;20261;-78
2022/06/24 12:14:33;;;;;;;20.75;15.23;;;19.50;99.90;;;;;;4970147;28;20047;-79
2022/06/24 12:17:07;;;;;;;17.25;14.02;;;19.50;99.90;;;;;;4960555;28;20545;-79
2022/06/24 12:19:36;;;;;;;22.23;16.75;;;19.50;99.90;;;;;;4961070;28;20042;-78
2022/06/24 12:22:07;;;;;;;18.73;14.43;;;19.50;99.90;;;;;;4967580;28;20552;-78
2022/06/24 12:24:33;;;;;;;17.27;15.43;;;19.50;99.90;;;;;;4978772;28;20050;-79
2022/06/24 12:27:02;;;;;;;18.20;15.60;;;19.50;99.90;;;;;;4979943;28;20050;-79
2022/06/24 12:29:31;;;;;;;19.67;14.95;;;19.50;99.90;;;;;;4979850;28;20173;-79
2022/06/24 12:31:58;;;;;;;24.10;18.13;;;19.60;99.90;;;;;;4979985;28;20057;-79
2022/06/24 12:34:32;;;;;;;15.88;14.02;;;19.60;99.90;;;;;;4980306;28;20051;-79
2022/06/24 12:37:00;;;;;;;16.10;14.55;;;19.60;99.90;;;;;;4979782;28;20435;-79
2022/06/24 12:39:38;;;;;;;24.98;16.23;;;19.70;99.90;;;;;;4979777;28;20073;-79
2022/06/24 12:42:05;;;;;;;19.98;15.38;;;19.70;99.90;;;;;;4980167;28;20050;-79
2022/06/24 12:44:41;;;;;;;18.85;14.45;;;19.70;99.90;;;;;;4962873;28;20131;-79
2022/06/24 12:52:41;;;;;;;16.13;12.10;;;19.90;99.90;;;;;;4967467;28;20042;-79
2022/06/24 12:55:09;;;;;;;16.40;12.32;;;20.00;99.90;;;;;;4978822;28;20138;-78
2022/06/24 12:57:36;;;;;;;13.60;11.73;;;20.00;99.90;;;;;;4980212;28;20043;-78
2022/06/24 13:00:09;;;;;;;13.73;11.70;;;20.00;99.90;;;;;;4964979;28;20042;-79
2022/06/24 13:02:49;;;;;;;15.77;12.30;;;20.00;99.90;;;;;;4964540;28;20047;-78